createdAt,value
2022-07-30T00:01:26.812Z,17.39
2022-07-30T00:06:33.453Z,17.34
2022-07-30T00:11:39.281Z,17.31
2022-07-30T00:16:45.238Z,17.31
2022-07-30T00:21:51.229Z,17.34
2022-07-30T00:26:57.550Z,17.37
2022-07-30T00:32:04.053Z,17.35
2022-07-30T00:37:10.188Z,17.29
2022-07-30T00:42:17.847Z,17.22
2022-07-30T00:47:23.777Z,17.14
2022-07-30T00:52:30.029Z,17.09
2022-07-30T00:57:36.121Z,17.05
2022-07-30T01:02:42.148Z,17.01
2022-07-30T01:07:47.977Z,16.97
2022-07-30T01:12:54.637Z,16.95
2022-07-30T01:18:04.165Z,16.93
2022-07-30T01:23:18.112Z,16.93
2022-07-30T01:28:27.708Z,16.94
2022-07-30T01:33:36.646Z,16.93
2022-07-30T01:38:44.213Z,16.91
2022-07-30T01:43:50.861Z,16.91
2022-07-30T01:48:59.209Z,16.91
2022-07-30T01:54:10.981Z,16.95
2022-07-30T01:59:21.019Z,17.01
2022-07-30T02:04:27.606Z,17.07
2022-07-30T02:09:45.606Z,17.09
2022-07-30T02:14:58.880Z,17.09
2022-07-30T02:20:09.908Z,17.08
2022-07-30T02:25:20.670Z,17.08
2022-07-30T02:30:30.304Z,17.07
2022-07-30T02:35:38.141Z,17.05
2022-07-30T02:40:45.950Z,17.00
2022-07-30T02:45:52.497Z,16.99
2022-07-30T02:51:00.827Z,17.03
2022-07-30T02:56:09.514Z,17.03
2022-07-30T03:01:18.304Z,16.97
2022-07-30T03:06:25.977Z,16.93
2022-07-30T03:11:33.592Z,16.86
2022-07-30T03:16:46.761Z,16.82
2022-07-30T03:21:56.309Z,16.80
2022-07-30T03:27:04.012Z,16.86
2022-07-30T03:32:13.699Z,16.91
2022-07-30T03:37:21.521Z,16.96
2022-07-30T03:42:28.568Z,16.96
2022-07-30T03:47:37.312Z,16.94
2022-07-30T03:52:44.023Z,16.94
2022-07-30T03:57:53.849Z,16.97
2022-07-30T04:03:04.066Z,16.97
2022-07-30T04:08:13.460Z,16.97
2022-07-30T04:13:20.649Z,16.98
2022-07-30T04:18:31.442Z,16.95
2022-07-30T04:24:01.605Z,17.01
2022-07-30T04:29:07.564Z,17.11
2022-07-30T04:34:16.568Z,17.19
2022-07-30T04:39:22.377Z,17.24
2022-07-30T04:44:28.338Z,17.28
2022-07-30T04:49:58.322Z,17.45
2022-07-30T04:55:07.286Z,17.62
2022-07-30T05:00:14.730Z,17.83
2022-07-30T05:05:21.908Z,18.14
2022-07-30T05:10:28.278Z,18.46
2022-07-30T05:15:36.266Z,18.57
2022-07-30T05:20:44.773Z,18.81
2022-07-30T05:26:04.339Z,19.04
2022-07-30T05:31:15.293Z,19.15
2022-07-30T05:36:25.738Z,19.08
2022-07-30T05:41:33.442Z,18.83
2022-07-30T05:46:42.488Z,18.64
2022-07-30T05:51:48.571Z,18.57
2022-07-30T05:56:57.038Z,18.51
2022-07-30T06:02:11.286Z,18.52
2022-07-30T06:07:31.042Z,18.60
2022-07-30T06:12:37.346Z,18.57
2022-07-30T06:17:58.279Z,18.50
2022-07-30T06:23:40.719Z,18.52
2022-07-30T06:28:52.282Z,18.58
2022-07-30T06:34:04.297Z,18.58
2022-07-30T06:39:56.909Z,18.59
2022-07-30T06:45:05.276Z,18.59
2022-07-30T06:50:31.473Z,18.61
2022-07-30T06:55:37.437Z,18.72
2022-07-30T07:00:45.129Z,18.87
2022-07-30T07:05:52.138Z,19.02
2022-07-30T07:10:58.237Z,19.01
2022-07-30T07:16:10.207Z,19.07
2022-07-30T07:21:16.964Z,19.15
2022-07-30T07:26:24.065Z,19.32
2022-07-30T07:32:05.676Z,19.53
2022-07-30T07:36:56.877Z,19.76
2022-07-30T07:42:02.832Z,19.77
2022-07-30T07:47:11.585Z,19.85
2022-07-30T07:52:21.903Z,20.00
2022-07-30T07:57:27.937Z,20.18
2022-07-30T08:02:34.853Z,20.46
2022-07-30T08:07:46.047Z,20.89
2022-07-30T08:13:49.060Z,21.30
2022-07-30T08:18:55.279Z,21.69
2022-07-30T08:24:09.775Z,21.81
2022-07-30T08:29:17.348Z,21.86
2022-07-30T08:34:25.688Z,22.00
2022-07-30T08:39:32.579Z,22.30
2022-07-30T08:44:40.670Z,22.68
2022-07-30T08:49:48.375Z,23.16
2022-07-30T08:54:55.860Z,23.90
2022-07-30T09:00:02.217Z,24.55
2022-07-30T09:05:10.393Z,25.62
2022-07-30T09:10:17.914Z,25.47
2022-07-30T09:15:25.683Z,25.08
2022-07-30T09:20:35.277Z,24.86
2022-07-30T09:25:46.580Z,24.79
2022-07-30T09:31:47.626Z,25.19
2022-07-30T09:37:20.656Z,25.57
2022-07-30T09:42:45.546Z,26.01
2022-07-30T09:47:53.512Z,26.25
2022-07-30T09:53:12.065Z,26.42
2022-07-30T09:58:27.384Z,26.56
2022-07-30T10:03:42.301Z,26.20
2022-07-30T10:09:14.089Z,25.54
2022-07-30T10:14:31.309Z,24.99
2022-07-30T10:19:39.559Z,24.59
2022-07-30T10:25:07.649Z,24.25
2022-07-30T10:30:34.085Z,23.93
2022-07-30T10:35:40.266Z,23.62
2022-07-30T10:40:52.832Z,23.45
2022-07-30T10:46:22.163Z,23.35
2022-07-30T10:51:46.573Z,23.26
2022-07-30T10:57:06.218Z,23.18
2022-07-30T11:02:12.358Z,22.99
2022-07-30T11:07:31.964Z,22.92
2022-07-30T11:12:56.941Z,22.76
2022-07-30T11:18:12.089Z,22.53
2022-07-30T11:23:39.102Z,22.56
2022-07-30T11:28:49.167Z,22.58
2022-07-30T11:34:29.779Z,22.53
2022-07-30T11:40:08.210Z,22.43
2022-07-30T11:45:29.608Z,22.34
2022-07-30T11:50:36.417Z,22.26
2022-07-30T11:55:47.711Z,22.18
2022-07-30T12:00:55.255Z,22.05
2022-07-30T12:06:07.200Z,21.96
2022-07-30T12:11:13.920Z,21.83
2022-07-30T12:16:20.313Z,21.77
2022-07-30T12:21:26.442Z,21.72
2022-07-30T12:26:34.832Z,21.62
2022-07-30T12:31:41.392Z,21.51
2022-07-30T12:36:47.585Z,21.36
2022-07-30T12:41:58.221Z,21.31
2022-07-30T12:47:05.961Z,21.27
2022-07-30T12:52:28.130Z,21.23
2022-07-30T12:58:01.788Z,21.15
2022-07-30T13:03:23.526Z,21.00
2022-07-30T13:08:50.814Z,20.94
2022-07-30T13:13:56.891Z,20.80
2022-07-30T13:19:04.653Z,20.70
2022-07-30T13:24:11.349Z,20.63
2022-07-30T13:29:24.327Z,20.58
2022-07-30T13:34:30.114Z,20.54
2022-07-30T13:39:36.202Z,20.48
2022-07-30T13:44:42.151Z,20.43
2022-07-30T13:49:51.122Z,20.41
2022-07-30T13:54:58.141Z,20.42
2022-07-30T14:00:05.059Z,20.45
2022-07-30T14:05:11.980Z,20.47
2022-07-30T14:10:18.221Z,20.47
2022-07-30T14:15:24.648Z,20.40
2022-07-30T14:20:31.028Z,20.33
2022-07-30T14:25:37.006Z,20.33
2022-07-30T14:30:43.325Z,20.28
2022-07-30T14:35:49.177Z,20.19
2022-07-30T14:40:56.373Z,20.11
2022-07-30T14:46:02.312Z,19.99
2022-07-30T14:51:17.751Z,19.95
2022-07-30T14:56:27.109Z,19.95
2022-07-30T15:01:33.178Z,20.01
2022-07-30T15:06:40.774Z,20.03
2022-07-30T15:17:12.691Z,20.01
2022-07-30T15:22:19.102Z,20.01
2022-07-30T15:27:33.372Z,20.05
2022-07-30T15:32:40.081Z,20.00
2022-07-30T15:37:45.877Z,20.00
2022-07-30T15:42:52.116Z,19.99
2022-07-30T15:47:58.053Z,19.92
2022-07-30T15:53:09.367Z,19.84
2022-07-30T15:58:17.765Z,19.78
2022-07-30T16:03:24.095Z,19.76
2022-07-30T16:08:30.479Z,19.69
2022-07-30T16:13:36.362Z,19.65
2022-07-30T16:18:42.437Z,19.63
2022-07-30T16:23:48.213Z,19.59
2022-07-30T16:28:54.497Z,19.54
2022-07-30T16:34:01.509Z,19.56
2022-07-30T16:39:07.355Z,19.56
2022-07-30T16:44:13.246Z,19.53
2022-07-30T16:49:19.448Z,19.49
2022-07-30T16:54:25.454Z,19.44
2022-07-30T16:59:31.350Z,19.38
2022-07-30T17:04:38.763Z,19.32
2022-07-30T17:09:44.539Z,19.25
2022-07-30T17:14:58.197Z,19.25
2022-07-30T17:20:06.393Z,19.21
2022-07-30T17:25:12.528Z,19.18
2022-07-30T17:30:19.929Z,19.15
2022-07-30T17:35:26.326Z,19.09
2022-07-30T17:40:32.290Z,19.01
2022-07-30T17:45:38.534Z,18.95
2022-07-30T17:50:44.565Z,18.94
2022-07-30T17:55:57.294Z,18.86
2022-07-30T18:01:04.706Z,18.77
2022-07-30T18:06:12.103Z,18.72
2022-07-30T18:11:18.486Z,18.63
2022-07-30T18:16:24.487Z,18.51
2022-07-30T18:21:30.313Z,18.44
2022-07-30T18:26:38.635Z,18.38
2022-07-30T18:31:45.494Z,18.33
2022-07-30T18:36:53.113Z,18.28
2022-07-30T18:42:02.119Z,18.19
2022-07-30T18:47:08.704Z,18.11
2022-07-30T18:52:14.615Z,18.08
2022-07-30T18:57:21.299Z,18.03
2022-07-30T19:02:27.451Z,17.97
2022-07-30T19:07:48.123Z,17.96
2022-07-30T19:12:59.700Z,17.92
2022-07-30T19:18:05.729Z,17.85
2022-07-30T19:23:12.452Z,17.83
2022-07-30T19:28:18.428Z,17.77
2022-07-30T19:33:24.627Z,17.68
2022-07-30T19:38:30.857Z,17.64
2022-07-30T19:43:37.368Z,17.60
2022-07-30T19:48:45.379Z,17.51
2022-07-30T19:53:52.254Z,17.42
2022-07-30T19:58:58.146Z,17.36
2022-07-30T20:04:05.701Z,17.29
2022-07-30T20:09:14.961Z,17.26
2022-07-30T20:14:22.891Z,17.25
2022-07-30T20:19:35.954Z,17.17
2022-07-30T20:24:42.427Z,17.13
2022-07-30T20:29:48.455Z,17.13
2022-07-30T20:34:54.990Z,17.12
2022-07-30T20:40:01.136Z,17.11
2022-07-30T20:45:09.475Z,17.10
2022-07-30T20:50:15.574Z,17.15
2022-07-30T20:55:23.179Z,17.11
2022-07-30T21:00:29.099Z,17.02
2022-07-30T21:05:36.548Z,17.00
2022-07-30T21:10:44.565Z,16.99
2022-07-30T21:16:02.265Z,17.03
2022-07-30T21:21:17.677Z,17.00
2022-07-30T21:26:35.297Z,16.95
2022-07-30T21:32:01.502Z,16.91
2022-07-30T21:37:13.072Z,16.91
2022-07-30T21:42:30.162Z,16.93
2022-07-30T21:47:36.962Z,16.95
2022-07-30T21:52:43.941Z,16.95
2022-07-30T21:57:50.740Z,16.94
2022-07-30T22:02:57.288Z,16.94
2022-07-30T22:08:03.738Z,16.99
2022-07-30T22:13:18.351Z,17.03
2022-07-30T22:18:28.463Z,17.01
2022-07-30T22:23:34.369Z,16.97
2022-07-30T22:28:40.365Z,16.92
2022-07-30T22:33:46.513Z,16.87
2022-07-30T22:38:58.719Z,16.87
2022-07-30T22:44:05.467Z,16.86
2022-07-30T22:49:23.477Z,16.81
2022-07-30T22:54:30.465Z,16.78
2022-07-30T22:59:57.890Z,16.75
2022-07-30T23:05:03.204Z,16.79
2022-07-30T23:10:12.327Z,16.81
2022-07-30T23:15:24.741Z,16.82
2022-07-30T23:20:30.815Z,16.81
2022-07-30T23:25:39.005Z,16.77
2022-07-30T23:30:45.360Z,16.79
2022-07-30T23:35:51.497Z,16.82
2022-07-30T23:41:02.271Z,16.84
2022-07-30T23:46:09.504Z,16.82
2022-07-30T23:51:16.884Z,16.81
2022-07-30T23:56:22.794Z,16.80
